Time;durP1;ratioP1;P1;durP2;ratioP2;P2;SDS_P1;SDS_P2;PMS_P1;PMS_P2;Temp;Humidity;BMP_temperature;BMP_pressure;BME280_temperature;BME280_humidity;BME280_pressure;Samples;Min_cycle;Max_cycle;Signal;HPM_P1;HPM_P2
2022/10/17 00:02:57;;;;;;;2.10;0.60;;;;;;;18.65;67.57;97149.97;10564724;28;20031;-29
2022/10/17 00:07:57;;;;;;;2.22;1.02;;;;;;;18.79;68.44;97144.16;10559164;28;20505;-30
2022/10/17 00:12:57;;;;;;;3.08;1.20;;;;;;;18.80;67.87;97145.00;10564719;28;20047;-30
2022/10/17 00:17:58;;;;;;;3.87;1.27;;;;;;;18.78;67.60;97139.06;10559798;28;20040;-29
2022/10/17 00:22:59;;;;;;;2.08;1.20;;;;;;;18.77;66.94;97152.59;10564810;28;20037;-29
2022/10/17 00:27:59;;;;;;;2.00;1.08;;;;;;;18.73;66.11;97159.34;10568126;28;20043;-29
2022/10/17 00:33:00;;;;;;;1.63;1.17;;;;;;;18.72;65.70;97157.63;10560985;28;20043;-29
2022/10/17 00:38:00;;;;;;;2.78;1.58;;;;;;;18.71;65.31;97161.03;10546799;28;20293;-29
2022/10/17 00:43:01;;;;;;;1.42;1.08;;;;;;;18.69;65.21;97159.31;10562537;28;20035;-30
2022/10/17 00:48:07;;;;;;;1.67;1.00;;;;;;;18.67;65.22;97161.81;10565797;28;20070;-29
2022/10/17 00:53:09;;;;;;;1.73;0.73;;;;;;;18.67;64.99;97168.59;10561058;28;20802;-29
2022/10/17 00:58:10;;;;;;;2.72;0.65;;;;;;;18.74;68.71;97155.13;10535345;28;20644;-28
2022/10/17 01:03:10;;;;;;;1.85;1.00;;;;;;;18.82;68.60;97166.16;10560848;28;20028;-29
2022/10/17 01:08:11;;;;;;;1.60;0.77;;;;;;;18.78;67.07;97164.44;10545776;28;20024;-30
2022/10/17 01:13:25;;;;;;;2.08;1.38;;;;;;;18.76;66.83;97166.94;10539914;28;20282;-28
2022/10/17 01:18:28;;;;;;;1.45;0.80;;;;;;;18.74;65.70;97175.41;10562779;28;20039;-30
2022/10/17 01:23:55;;;;;;;0.70;0.63;;;;;;;18.73;65.53;97176.22;10570678;28;20047;-29
2022/10/17 01:29:27;;;;;;;2.15;0.90;;;;;;;18.69;65.32;97183.00;10565513;28;20505;-28
2022/10/17 01:34:35;;;;;;;2.50;1.00;;;;;;;18.67;65.11;97178.75;10553093;28;20032;-30
2022/10/17 01:39:41;;;;;;;2.05;0.82;;;;;;;18.68;65.27;97185.50;10576980;28;20396;-28
2022/10/17 01:44:51;;;;;;;0.82;0.70;;;;;;;18.69;65.19;97179.59;10558223;28;20065;-31
2022/10/17 01:49:57;;;;;;;3.70;0.60;;;;;;;18.79;68.92;97178.81;10552701;28;20032;-29
2022/10/17 01:55:08;;;;;;;1.77;1.10;;;;;;;18.82;67.37;97181.38;10556546;28;20118;-29
2022/10/17 02:00:14;;;;;;;1.17;0.73;;;;;;;18.79;67.31;97177.13;10546363;28;20374;-28
2022/10/17 02:05:18;;;;;;;2.85;0.77;;;;;;;18.75;67.14;97172.03;10575139;28;20050;-29
2022/10/17 02:10:31;;;;;;;2.53;0.95;;;;;;;18.74;67.01;97160.19;10571194;28;20055;-31
2022/10/17 02:15:37;;;;;;;0.55;0.50;;;;;;;18.72;66.41;97161.84;10547868;28;20501;-29
2022/10/17 02:21:07;;;;;;;0.60;0.50;;;;;;;18.70;65.42;97159.31;10568340;28;20497;-29
2022/10/17 02:26:21;;;;;;;2.25;1.13;;;;;;;18.68;65.10;97155.91;10552513;28;20035;-29
2022/10/17 02:31:30;;;;;;;1.20;0.60;;;;;;;18.66;65.13;97156.75;10554627;28;20432;-28
2022/10/17 02:36:42;;;;;;;2.38;0.80;;;;;;;18.69;67.37;97156.78;10548925;28;20036;-29
2022/10/17 02:41:45;;;;;;;1.70;0.75;;;;;;;18.78;68.71;97161.91;10553433;28;20084;-29
2022/10/17 02:46:54;;;;;;;0.93;0.63;;;;;;;18.81;68.33;97146.69;10541666;28;20393;-29
2022/10/17 02:52:04;;;;;;;1.65;0.70;;;;;;;18.78;67.22;97159.34;10555837;28;20456;-29
2022/10/17 02:57:11;;;;;;;1.90;0.85;;;;;;;18.75;66.75;97146.66;10551114;28;20028;-25
2022/10/17 03:02:11;;;;;;;1.55;0.98;;;;;;;18.69;66.34;97142.41;10550688;28;20205;-30
2022/10/17 03:07:12;;;;;;;2.97;1.10;;;;;;;18.72;65.42;97151.69;10570587;28;20024;-29
2022/10/17 03:12:12;;;;;;;1.30;0.82;;;;;;;18.70;65.33;97164.41;10566044;28;20172;-30
2022/10/17 03:17:13;;;;;;;4.97;1.15;;;;;;;18.69;65.33;97161.84;10553463;28;20031;-29
2022/10/17 03:22:14;;;;;;;1.63;0.75;;;;;;;18.69;65.09;97166.91;10548662;28;20027;-28
2022/10/17 03:27:18;;;;;;;1.92;0.82;;;;;;;18.67;65.00;97168.59;10543671;28;20028;-29
2022/10/17 03:32:19;;;;;;;1.45;0.93;;;;;;;18.74;68.32;97163.56;10545195;28;20028;-29
2022/10/17 03:37:20;;;;;;;1.05;0.80;;;;;;;18.80;68.44;97168.69;10545916;28;20023;-29
2022/10/17 03:42:21;;;;;;;1.90;0.80;;;;;;;18.80;67.11;97185.56;10536240;28;20073;-30
2022/10/17 03:47:21;;;;;;;1.77;0.70;;;;;;;18.77;66.77;97176.25;10538635;28;20020;-31
2022/10/17 03:52:22;;;;;;;3.78;0.93;;;;;;;18.75;66.45;97187.25;10542105;28;20062;-30
2022/10/17 03:57:23;;;;;;;1.48;0.80;;;;;;;18.73;66.32;97184.69;10542955;28;20490;-28
2022/10/17 04:02:24;;;;;;;2.50;0.90;;;;;;;18.72;65.14;97189.75;10556728;28;20073;-29
2022/10/17 04:07:25;;;;;;;3.90;0.82;;;;;;;18.68;65.08;97186.34;10538663;28;20560;-29
2022/10/17 04:12:25;;;;;;;1.25;0.65;;;;;;;18.68;64.89;97191.41;10541232;28;20027;-29
2022/10/17 04:17:29;;;;;;;1.45;0.80;;;;;;;18.68;65.02;97193.94;10549390;28;20019;-29
2022/10/17 04:22:29;;;;;;;1.98;0.70;;;;;;;18.68;64.92;97193.13;10539970;28;20137;-29
2022/10/17 04:27:31;;;;;;;3.03;0.80;;;;;;;18.79;67.94;97199.09;10537073;28;20024;-29
2022/10/17 04:32:35;;;;;;;7.78;3.22;;;;;;;18.80;68.49;97201.66;10537780;28;20477;-29
2022/10/17 04:37:41;;;;;;;3.28;0.90;;;;;;;18.75;66.83;97189.78;10534488;28;20060;-30
2022/10/17 04:42:49;;;;;;;2.65;1.00;;;;;;;18.77;66.71;97200.78;10535739;28;20024;-29
2022/10/17 04:47:53;;;;;;;3.53;1.17;;;;;;;18.74;67.01;97200.78;10537154;28;20032;-29
2022/10/17 04:52:54;;;;;;;4.05;0.90;;;;;;;18.69;66.99;97198.22;10542014;28;20493;-29
2022/10/17 04:57:54;;;;;;;4.78;1.13;;;;;;;18.72;66.74;97199.91;10540295;28;20024;-33
2022/10/17 05:02:55;;;;;;;3.15;1.00;;;;;;;18.73;65.63;97206.66;10544216;28;20034;-29
2022/10/17 05:07:55;;;;;;;10.52;2.20;;;;;;;18.64;65.69;97204.06;10557327;28;20039;-30
2022/10/17 05:12:59;;;;;;;15.32;2.00;;;;;;;18.64;65.61;97201.53;10546778;28;20603;-30
2022/10/17 05:18:05;;;;;;;20.27;4.25;;;;;;;18.72;67.12;97221.06;10538991;28;20051;-31
2022/10/17 05:23:05;;;;;;;21.73;4.40;;;;;;;18.80;67.33;97223.63;10543824;28;20020;-30
2022/10/17 05:28:11;;;;;;;9.75;3.03;;;;;;;18.77;67.22;97213.47;10539842;28;20106;-31
2022/10/17 05:33:13;;;;;;;11.75;2.70;;;;;;;18.80;66.96;97236.31;10545294;28;20024;-29
2022/10/17 05:38:14;;;;;;;12.60;1.88;;;;;;;18.65;65.19;97237.06;10538232;28;20043;-29
2022/10/17 05:43:16;;;;;;;9.05;2.20;;;;;;;18.67;65.91;97224.41;10540792;28;20023;-29
2022/10/17 05:48:18;;;;;;;8.02;2.10;;;;;;;18.70;65.35;97237.94;10541896;28;20059;-29
2022/10/17 05:53:19;;;;;;;5.80;1.40;;;;;;;18.71;66.11;97239.66;10562950;28;20055;-30
2022/10/17 05:58:23;;;;;;;5.85;1.90;;;;;;;18.71;65.33;97246.41;10544558;28;20034;-30
2022/10/17 06:03:28;;;;;;;2.17;1.45;;;;;;;18.71;65.75;97266.69;10545087;28;20040;-30
2022/10/17 06:08:29;;;;;;;6.65;1.27;;;;;;;18.69;65.09;97261.63;10547261;28;20031;-30
2022/10/17 06:13:29;;;;;;;5.35;1.50;;;;;;;18.70;67.38;97265.00;10544202;28;20417;-30
2022/10/17 06:18:32;;;;;;;5.55;1.50;;;;;;;18.80;67.11;97267.63;10553801;28;20023;-30
2022/10/17 06:23:33;;;;;;;2.80;1.50;;;;;;;18.80;66.86;97271.81;10549552;28;20119;-28
2022/10/17 06:28:42;;;;;;;6.03;1.80;;;;;;;18.79;66.70;97280.28;10543981;28;20493;-30
2022/10/17 06:33:42;;;;;;;4.57;1.23;;;;;;;18.77;66.79;97292.09;10550855;28;20024;-29
2022/10/17 06:38:43;;;;;;;4.72;1.58;;;;;;;18.70;66.55;97287.81;10546349;28;20036;-29
2022/10/17 06:43:53;;;;;;;3.13;1.27;;;;;;;18.73;66.17;97305.59;10554301;28;20131;-29
2022/10/17 06:49:12;;;;;;;4.93;1.50;;;;;;;18.70;66.50;97316.59;10565545;28;20040;-30
2022/10/17 06:54:17;;;;;;;3.85;1.48;;;;;;;18.70;66.78;97325.88;10544397;28;20274;-32
2022/10/17 06:59:36;;;;;;;6.50;1.23;;;;;;;18.69;65.12;97319.09;10567943;28;20477;-30
2022/10/17 07:04:45;;;;;;;4.78;1.20;;;;;;;18.69;65.05;97321.63;10536688;28;20035;-29
2022/10/17 07:09:46;;;;;;;4.78;1.33;;;;;;;18.73;67.55;97328.41;10568819;28;20164;-29
2022/10/17 07:14:49;;;;;;;2.55;1.20;;;;;;;18.81;66.99;97339.47;10541824;28;20032;-29
2022/10/17 07:19:49;;;;;;;2.45;1.10;;;;;;;18.82;66.64;97336.13;10565032;28;20059;-30
2022/10/17 07:24:50;;;;;;;2.45;1.17;;;;;;;18.78;66.64;97339.47;10543725;28;20067;-28
2022/10/17 07:30:04;;;;;;;1.88;1.20;;;;;;;18.74;66.78;97338.59;10542140;28;20024;-29
2022/10/17 07:35:13;;;;;;;1.75;1.17;;;;;;;18.74;66.73;97340.28;10543542;28;20031;-29
2022/10/17 07:40:15;;;;;;;1.98;1.13;;;;;;;18.72;66.58;97342.81;10549901;28;20023;-29
2022/10/17 07:45:16;;;;;;;3.00;1.05;;;;;;;18.71;66.83;97353.78;10547138;28;20028;-29
2022/10/17 07:50:17;;;;;;;3.42;1.30;;;;;;;18.69;64.68;97349.53;10549932;28;20055;-29
2022/10/17 07:55:18;;;;;;;1.07;0.87;;;;;;;18.68;65.24;97350.38;10565263;28;20419;-29
2022/10/17 08:00:18;;;;;;;2.17;1.13;;;;;;;18.70;66.26;97361.38;10561221;28;20024;-29
2022/10/17 08:05:19;;;;;;;2.70;1.33;;;;;;;18.72;67.48;97365.63;10567125;28;20462;-29
2022/10/17 08:10:20;;;;;;;4.40;1.30;;;;;;;18.82;66.95;97358.97;10559799;28;20042;-30
2022/10/17 08:15:21;;;;;;;1.42;1.15;;;;;;;18.81;66.73;97359.78;10540336;28;20591;-29
2022/10/17 08:20:21;;;;;;;2.13;0.90;;;;;;;18.77;66.45;97369.03;10561300;28;20019;-29
2022/10/17 08:25:22;;;;;;;1.23;0.70;;;;;;;18.76;66.70;97374.97;10566543;28;20020;-30
2022/10/17 08:30:22;;;;;;;2.15;1.02;;;;;;;18.75;65.98;97380.03;10562876;28;20028;-29
2022/10/17 08:35:23;;;;;;;1.42;0.73;;;;;;;18.73;65.15;97382.56;10558998;28;20032;-29
2022/10/17 08:40:26;;;;;;;2.37;1.00;;;;;;;18.71;65.23;97378.28;10565637;28;20036;-29
2022/10/17 08:45:37;;;;;;;3.17;1.60;;;;;;;18.69;64.95;97385.91;10560586;28;20028;-29
2022/10/17 08:51:06;;;;;;;2.50;0.90;;;;;;;18.68;64.58;97388.41;10562989;28;20099;-30
2022/10/17 08:56:17;;;;;;;1.48;0.90;;;;;;;18.67;64.53;97387.56;10554817;28;20420;-29
2022/10/17 09:01:45;;;;;;;1.40;0.82;;;;;;;18.72;67.50;97387.59;10563991;28;20023;-29
2022/10/17 09:07:16;;;;;;;1.27;1.15;;;;;;;18.78;67.28;97375.84;10553108;28;20107;-30
2022/10/17 09:12:23;;;;;;;3.00;1.42;;;;;;;18.80;66.23;97381.78;10558453;28;20122;-29
2022/10/17 09:17:23;;;;;;;;;;;;;;;18.76;66.25;97384.28;10566019;28;20027;-30
2022/10/17 09:22:29;;;;;;;1.38;0.80;;;;;;;18.73;65.09;97381.69;10559461;28;19919;-29
2022/10/17 09:27:41;;;;;;;1.25;0.80;;;;;;;18.72;64.87;97383.38;10563658;28;20426;-29
2022/10/17 09:32:41;;;;;;;1.08;0.80;;;;;;;18.68;64.85;97383.34;10552742;28;20028;-29
2022/10/17 09:37:43;;;;;;;1.10;1.00;;;;;;;18.65;64.52;97388.38;10558670;28;20036;-29
2022/10/17 09:42:48;;;;;;;4.30;2.08;;;;;;;18.67;64.75;97395.16;10566576;28;20028;-30
2022/10/17 09:48:15;;;;;;;3.53;1.17;;;;;;;18.68;64.49;97403.63;10564907;28;20081;-30
2022/10/17 09:53:50;;;;;;;4.03;2.05;;;;;;;18.67;64.67;97402.78;10568964;28;20031;-29
2022/10/17 09:58:56;;;;;;;1.75;1.25;;;;;;;18.74;67.37;97411.31;10550835;28;20528;-29
2022/10/17 10:04:14;;;;;;;1.80;1.08;;;;;;;18.83;66.94;97424.09;10570029;28;20186;-30
2022/10/17 10:09:24;;;;;;;1.98;1.60;;;;;;;18.82;66.45;97417.31;10566319;28;20036;-28
2022/10/17 10:14:33;;;;;;;1.88;1.13;;;;;;;18.80;66.18;97424.03;10574270;28;20050;-29
2022/10/17 10:19:37;;;;;;;1.48;1.08;;;;;;;18.76;65.15;97418.06;10565833;28;20038;-29
2022/10/17 10:24:37;;;;;;;2.25;1.48;;;;;;;18.72;64.85;97426.50;10571254;28;20047;-29
2022/10/17 10:29:41;;;;;;;3.53;1.60;;;;;;;18.71;64.58;97431.56;10564053;28;20104;-30
2022/10/17 10:34:51;;;;;;;2.65;1.63;;;;;;;18.69;64.60;97423.09;10554630;28;20111;-30
2022/10/17 10:39:56;;;;;;;28.00;5.10;;;;;;;18.70;65.91;97429.84;10559431;28;20119;-29
2022/10/17 10:45:01;;;;;;;6.15;2.30;;;;;;;18.71;65.32;97440.03;10560905;28;20035;-29
2022/10/17 10:50:16;;;;;;;5.45;2.17;;;;;;;18.70;64.89;97442.53;10567326;28;20030;-28
2022/10/17 10:55:26;;;;;;;2.17;1.40;;;;;;;18.78;67.44;97448.56;10565747;28;20024;-29
2022/10/17 11:00:29;;;;;;;3.85;1.60;;;;;;;18.88;66.99;97447.81;10562080;28;20028;-28
2022/10/17 11:05:52;;;;;;;3.45;1.88;;;;;;;18.87;66.81;97456.25;10566477;28;20044;-30
2022/10/17 11:11:17;;;;;;;4.47;1.73;;;;;;;18.84;65.83;97466.38;10567755;28;20028;-29
2022/10/17 11:16:29;;;;;;;4.50;2.00;;;;;;;18.79;64.60;97473.06;10557006;28;20331;-28
2022/10/17 11:21:45;;;;;;;10.65;1.92;;;;;;;18.79;65.38;97468.00;10559592;27;20374;-29
2022/10/17 11:26:54;;;;;;;5.80;2.50;;;;;;;18.80;65.64;97472.25;10548110;28;20103;-30
2022/10/17 11:31:59;;;;;;;4.53;2.15;;;;;;;18.74;64.89;97477.28;10559723;28;20607;-29
2022/10/17 11:37:26;;;;;;;2.83;1.88;;;;;;;18.74;64.52;97489.94;10555799;28;20040;-29
2022/10/17 11:42:33;;;;;;;;;;;;;;;18.71;64.48;97480.63;10558719;28;20039;-30
2022/10/17 11:47:42;;;;;;;2.63;1.83;;;;;;;18.69;64.48;97486.50;10564419;27;19999;-29
2022/10/17 11:52:49;;;;;;;8.00;3.00;;;;;;;18.78;67.02;97486.59;10558389;28;20068;-29
2022/10/17 11:58:01;;;;;;;6.60;3.97;;;;;;;18.84;67.71;97486.69;10558965;28;20418;-29
2022/10/17 12:03:02;;;;;;;7.55;2.05;;;;;;;18.90;66.83;97486.72;10558073;28;20103;-28
2022/10/17 12:08:12;;;;;;;6.33;2.00;;;;;;;18.85;66.29;97479.06;10558156;28;20180;-29
2022/10/17 12:13:28;;;;;;;5.68;1.98;;;;;;;18.83;65.91;97480.75;10554546;28;20034;-29
2022/10/17 12:18:28;;;;;;;6.07;2.33;;;;;;;18.80;64.65;97479.84;10561915;28;20118;-29
2022/10/17 12:23:30;;;;;;;4.83;2.33;;;;;;;18.78;64.75;97479.84;10555582;28;20397;-29
2022/10/17 12:28:39;;;;;;;3.65;2.03;;;;;;;18.78;64.64;97482.41;10555295;28;20485;-29
2022/10/17 12:33:58;;;;;;;3.33;2.00;;;;;;;18.79;64.54;97478.16;10561098;28;20271;-29
2022/10/17 12:39:01;;;;;;;5.10;1.80;;;;;;;18.77;64.59;97467.16;10564065;28;20122;-29
2022/10/17 12:44:25;;;;;;;5.82;2.20;;;;;;;18.75;64.55;97472.19;10558830;28;20126;-29
2022/10/17 12:49:34;;;;;;;5.88;1.90;;;;;;;18.82;67.37;97473.97;10560544;28;20126;-29
2022/10/17 12:54:41;;;;;;;3.22;2.00;;;;;;;18.92;67.18;97469.84;10559826;28;20032;-31
2022/10/17 12:59:43;;;;;;;4.32;2.35;;;;;;;18.95;66.75;97470.72;10541325;28;20558;-31
2022/10/17 13:04:45;;;;;;;7.30;2.85;;;;;;;18.90;65.79;97462.22;10559146;28;20574;-29
2022/10/17 13:09:47;;;;;;;3.88;2.13;;;;;;;18.88;65.46;97473.19;10563836;28;20485;-29
2022/10/17 13:14:49;;;;;;;4.75;2.20;;;;;;;18.83;65.65;97467.22;10567743;28;20027;-29
2022/10/17 13:19:50;;;;;;;3.65;2.20;;;;;;;18.83;64.93;97457.06;10566128;28;20034;-30
2022/10/17 13:25:03;;;;;;;3.30;1.45;;;;;;;18.81;64.62;97461.25;10569414;28;20031;-29
2022/10/17 13:30:25;;;;;;;3.08;2.15;;;;;;;18.79;64.40;97456.19;10569411;28;20032;-29
2022/10/17 13:35:27;;;;;;;3.70;1.67;;;;;;;18.80;64.63;97454.47;10563825;28;20043;-29
2022/10/17 13:40:30;;;;;;;4.15;2.03;;;;;;;18.78;64.67;97451.09;10569421;28;20504;-29
2022/10/17 13:45:35;;;;;;;3.15;1.77;;;;;;;18.78;64.43;97451.09;10566160;28;20028;-30
2022/10/17 13:50:40;;;;;;;3.42;1.38;;;;;;;18.87;64.75;97452.03;10562234;28;20016;-29
2022/10/17 13:56:04;;;;;;;2.85;1.30;;;;;;;18.96;64.44;97452.13;10567059;28;20122;-29
2022/10/17 14:01:05;;;;;;;2.80;1.40;;;;;;;18.94;64.25;97448.72;10557630;28;20042;-29
2022/10/17 14:06:23;;;;;;;6.45;2.03;;;;;;;18.85;64.73;97446.06;10567393;28;20027;-29
2022/10/17 14:11:26;;;;;;;9.48;3.35;;;;;;;18.83;65.20;97452.00;10565403;28;20023;-29
2022/10/17 14:16:35;;;;;;;5.72;2.38;;;;;;;18.82;65.17;97452.84;10560604;28;20038;-28
2022/10/17 14:21:35;;;;;;;3.38;1.55;;;;;;;18.78;65.00;97451.09;10565829;28;20018;-29
2022/10/17 14:26:46;;;;;;;3.17;1.63;;;;;;;18.76;65.11;97438.38;10565941;28;20027;-29
2022/10/17 14:31:49;;;;;;;2.33;1.70;;;;;;;18.77;65.06;97451.94;10556291;28;20397;-29
2022/10/17 14:36:51;;;;;;;4.90;1.92;;;;;;;18.75;64.96;97451.06;10563834;28;20032;-29
2022/10/17 14:41:53;;;;;;;3.17;1.60;;;;;;;18.74;65.03;97455.28;10566548;28;20088;-30
2022/10/17 14:46:58;;;;;;;6.88;1.98;;;;;;;18.83;66.28;97439.31;10559552;28;20032;-29
2022/10/17 14:52:13;;;;;;;7.07;1.83;;;;;;;18.93;66.53;97444.47;10565956;28;20126;-30
2022/10/17 14:57:22;;;;;;;4.25;2.00;;;;;;;18.97;65.86;97458.03;10556294;28;20062;-29
2022/10/17 15:02:25;;;;;;;5.03;1.67;;;;;;;18.90;64.99;97456.28;10565995;28;20028;-29
2022/10/17 15:07:26;;;;;;;1.70;1.50;;;;;;;18.86;64.93;97457.09;10561981;28;20032;-29
2022/10/17 15:12:26;;;;;;;6.37;1.80;;;;;;;18.84;65.59;97462.13;10559139;28;20397;-29
2022/10/17 15:17:29;;;;;;;3.45;1.42;;;;;;;18.81;64.93;97463.78;10563218;28;20285;-30
2022/10/17 15:22:30;;;;;;;5.70;1.70;;;;;;;18.78;64.80;97466.31;10559991;28;20562;-29
2022/10/17 15:27:31;;;;;;;3.45;1.60;;;;;;;18.77;64.93;97464.59;10564104;28;20073;-29
2022/10/17 15:32:31;;;;;;;2.80;1.60;;;;;;;18.73;64.75;97450.19;10553937;28;20028;-29
2022/10/17 15:37:32;;;;;;;1.73;1.63;;;;;;;18.79;64.72;97453.66;10566580;28;20036;-29
2022/10/17 15:42:33;;;;;;;3.70;2.03;;;;;;;18.78;65.57;97457.03;10560939;28;20024;-29
2022/10/17 15:47:33;;;;;;;9.57;2.60;;;;;;;18.98;67.33;97464.81;10565693;28;20377;-29
2022/10/17 15:52:34;;;;;;;4.90;2.15;;;;;;;19.03;67.25;97463.19;10567667;28;20298;-30
2022/10/17 15:57:39;;;;;;;7.30;1.80;;;;;;;19.00;66.14;97468.25;10557424;28;20089;-29
2022/10/17 16:02:40;;;;;;;2.72;1.30;;;;;;;18.91;64.60;97473.22;10563384;27;20035;-30
2022/10/17 16:07:42;;;;;;;3.17;1.33;;;;;;;18.87;64.44;97479.09;10558999;28;20047;-30
2022/10/17 16:12:43;;;;;;;3.75;1.40;;;;;;;18.87;64.46;97484.16;10550457;27;20024;-31
2022/10/17 16:17:43;;;;;;;3.25;1.40;;;;;;;18.85;64.46;97488.38;10554178;28;20481;-29
2022/10/17 16:22:44;;;;;;;1.73;1.30;;;;;;;18.84;65.93;97491.75;10559137;28;20031;-30
2022/10/17 16:27:47;;;;;;;6.32;1.50;;;;;;;18.89;64.47;97505.31;10560169;28;20168;-29
2022/10/17 16:32:47;;;;;;;2.97;1.55;;;;;;;18.84;64.44;97496.81;10558423;28;20032;-29
2022/10/17 16:37:48;;;;;;;5.80;1.35;;;;;;;18.87;64.34;97501.91;10559270;28;20027;-30
2022/10/17 16:42:48;;;;;;;2.90;1.30;;;;;;;18.84;64.36;97491.75;10560791;28;20047;-29
2022/10/17 16:47:49;;;;;;;13.70;3.50;;;;;;;18.99;67.65;97502.06;10548522;28;20035;-30
2022/10/17 16:52:49;;;;;;;7.22;2.83;;;;;;;18.99;67.44;97499.53;10562457;28;20035;-29
2022/10/17 16:57:50;;;;;;;7.60;2.43;;;;;;;18.95;65.15;97503.72;10553951;28;20026;-30
2022/10/17 17:02:50;;;;;;;2.87;1.40;;;;;;;18.93;64.60;97512.97;10555865;28;20278;-30
2022/10/17 17:07:50;;;;;;;3.30;1.53;;;;;;;18.92;64.45;97516.34;10556924;28;20035;-31
2022/10/17 17:12:51;;;;;;;3.33;1.13;;;;;;;18.73;64.32;97511.06;10563834;28;20028;-31
2022/10/17 17:17:51;;;;;;;3.97;1.70;;;;;;;18.87;64.38;97542.50;10553581;28;20032;-31
2022/10/17 17:22:52;;;;;;;5.60;1.50;;;;;;;18.89;64.43;97543.38;10551310;28;20040;-30
2022/10/17 17:27:52;;;;;;;3.77;1.30;;;;;;;18.87;64.48;97547.59;10552258;28;20119;-30
2022/10/17 17:32:53;;;;;;;1.30;1.10;;;;;;;18.87;64.11;97558.59;10549836;28;20043;-30
2022/10/17 17:37:53;;;;;;;3.57;1.40;;;;;;;18.85;64.37;97562.78;10551836;28;20286;-30
2022/10/17 17:42:53;;;;;;;12.67;2.73;;;;;;;18.95;68.05;97564.63;10550146;28;20278;-30
2022/10/17 17:47:54;;;;;;;8.67;2.27;;;;;;;19.03;68.81;97557.09;10561338;28;20577;-30
2022/10/17 17:52:54;;;;;;;13.88;2.63;;;;;;;19.03;68.63;97564.69;10560890;28;20489;-31
2022/10/17 17:57:55;;;;;;;4.10;2.03;;;;;;;18.96;65.30;97570.53;10558964;28;20511;-30
2022/10/17 18:02:56;;;;;;;5.95;1.77;;;;;;;18.92;64.58;97582.34;10568360;28;20078;-30
2022/10/17 18:07:56;;;;;;;3.55;1.50;;;;;;;18.89;64.76;97589.06;10565174;28;20032;-32
2022/10/17 18:12:57;;;;;;;5.60;1.63;;;;;;;18.90;64.53;97593.28;10563767;28;20067;-32
2022/10/17 18:17:57;;;;;;;3.03;1.47;;;;;;;18.90;64.52;97598.38;10560774;28;20125;-31
2022/10/17 18:22:57;;;;;;;4.47;1.30;;;;;;;18.88;64.41;97594.97;10562700;28;20319;-31
2022/10/17 18:27:58;;;;;;;4.03;1.50;;;;;;;18.88;64.53;97607.66;10561584;28;20036;-30
2022/10/17 18:32:58;;;;;;;6.47;1.20;;;;;;;18.88;64.39;97600.03;10561765;28;20127;-30
2022/10/17 18:37:58;;;;;;;4.20;1.50;;;;;;;18.88;64.41;97597.50;10566124;28;20082;-31
2022/10/17 18:42:59;;;;;;;8.47;2.40;;;;;;;19.00;68.20;97608.66;10559288;28;20032;-32
2022/10/17 18:47:59;;;;;;;5.25;2.10;;;;;;;19.05;68.28;97598.56;10563550;28;20338;-30
2022/10/17 18:53:00;;;;;;;9.27;2.30;;;;;;;19.07;68.23;97617.19;10563356;28;20036;-31
2022/10/17 18:58:00;;;;;;;3.77;1.70;;;;;;;18.99;65.66;97598.50;10554606;28;20297;-31
2022/10/17 19:03:03;;;;;;;5.77;1.90;;;;;;;18.93;64.72;97590.81;10564425;28;20038;-31
2022/10/17 19:08:03;;;;;;;3.33;1.27;;;;;;;18.90;64.76;97598.38;10561641;28;20039;-31
2022/10/17 19:13:04;;;;;;;2.38;1.40;;;;;;;18.85;64.67;97593.22;10555575;28;20039;-30
2022/10/17 19:18:04;;;;;;;2.88;1.13;;;;;;;18.88;64.93;97589.88;10554227;28;20115;-31
2022/10/17 19:23:05;;;;;;;5.07;1.35;;;;;;;18.87;64.94;97589.06;10565891;28;20443;-31
2022/10/17 19:28:05;;;;;;;4.30;1.23;;;;;;;18.87;64.62;97599.22;10553158;28;20040;-30
2022/10/17 19:33:05;;;;;;;1.50;1.00;;;;;;;18.81;64.32;97594.03;10556923;28;20843;-31
2022/10/17 19:38:06;;;;;;;3.53;1.70;;;;;;;18.83;65.30;97592.38;10561522;28;20289;-32
2022/10/17 19:43:06;;;;;;;7.90;1.93;;;;;;;19.00;68.58;97611.19;10560962;28;20025;-30
2022/10/17 19:48:07;;;;;;;8.50;2.58;;;;;;;19.04;68.68;97607.00;10546738;28;20044;-31
2022/10/17 19:53:08;;;;;;;6.85;1.50;;;;;;;19.01;68.36;97612.88;10554618;28;20084;-31
2022/10/17 19:58:09;;;;;;;3.20;1.30;;;;;;;18.97;65.33;97608.63;10557285;28;20034;-30
2022/10/17 20:03:09;;;;;;;3.70;1.45;;;;;;;18.90;64.86;97605.97;10559348;28;20500;-30
2022/10/17 20:08:09;;;;;;;5.80;1.45;;;;;;;18.91;64.79;97616.16;10557167;28;20031;-31
2022/10/17 20:13:11;;;;;;;3.05;1.20;;;;;;;18.89;64.67;97616.97;10561097;28;20036;-30
2022/10/17 20:18:11;;;;;;;3.90;1.25;;;;;;;18.89;64.65;97607.69;10559816;28;20030;-31
2022/10/17 20:23:11;;;;;;;4.53;1.37;;;;;;;18.88;64.85;97610.19;10559321;28;20508;-30
2022/10/17 20:28:12;;;;;;;5.03;1.57;;;;;;;18.88;64.60;97610.19;10555945;28;20277;-31
2022/10/17 20:33:14;;;;;;;2.40;1.30;;;;;;;18.87;64.67;97608.50;10563708;28;20027;-31
2022/10/17 20:38:16;;;;;;;2.92;1.38;;;;;;;18.86;64.86;97609.31;10560901;28;20445;-31
2022/10/17 20:43:16;;;;;;;6.35;2.00;;;;;;;18.99;68.21;97623.88;10558508;28;20035;-31
2022/10/17 20:48:16;;;;;;;3.63;1.93;;;;;;;19.01;68.56;97629.81;10562782;28;20035;-31
2022/10/17 20:53:18;;;;;;;3.57;1.87;;;;;;;19.04;67.75;97640.00;10561659;28;20296;-30
2022/10/17 20:58:18;;;;;;;2.45;1.38;;;;;;;18.99;65.98;97650.09;10554875;28;20024;-31
2022/10/17 21:03:19;;;;;;;4.33;1.63;;;;;;;18.93;65.03;97639.03;10561509;28;20020;-33
2022/10/17 21:08:19;;;;;;;2.63;1.10;;;;;;;18.87;64.85;97638.94;10570101;28;20043;-30
2022/10/17 21:13:19;;;;;;;2.70;1.40;;;;;;;18.88;64.88;97646.56;10559521;28;20085;-33
2022/10/17 21:18:20;;;;;;;2.40;1.17;;;;;;;18.88;64.81;97645.72;10554311;28;20023;-31
2022/10/17 21:23:20;;;;;;;3.00;1.70;;;;;;;18.86;64.79;97644.84;10563711;28;20020;-30
2022/10/17 21:28:21;;;;;;;2.00;1.57;;;;;;;18.87;64.80;97659.25;10555735;28;20030;-31
2022/10/17 21:33:21;;;;;;;2.47;1.50;;;;;;;18.86;65.06;97657.53;10567029;28;20036;-31
2022/10/17 21:38:21;;;;;;;3.43;1.40;;;;;;;18.85;64.63;97646.53;10568191;28;20356;-31
2022/10/17 21:43:22;;;;;;;3.57;1.53;;;;;;;18.97;67.98;97645.81;10564418;28;20081;-32
2022/10/17 21:48:22;;;;;;;4.17;1.60;;;;;;;19.02;68.10;97644.22;10570174;28;20020;-30
2022/10/17 21:53:23;;;;;;;2.57;1.50;;;;;;;19.04;67.93;97640.00;10573738;28;20040;-32
2022/10/17 21:58:23;;;;;;;4.40;1.52;;;;;;;19.01;65.90;97632.38;10567647;28;20537;-31
2022/10/17 22:03:23;;;;;;;2.30;1.77;;;;;;;18.93;65.48;97639.03;10567153;28;20027;-31
2022/10/17 22:08:24;;;;;;;1.70;1.00;;;;;;;18.90;64.93;97637.28;10576404;28;20443;-30
2022/10/17 22:13:25;;;;;;;3.67;1.27;;;;;;;18.88;64.88;97635.56;10568061;28;20037;-32
2022/10/17 22:18:25;;;;;;;2.20;1.15;;;;;;;18.88;64.81;97635.56;10571006;28;20027;-30
2022/10/17 22:23:26;;;;;;;2.65;1.10;;;;;;;18.87;64.86;97629.66;10568841;28;20054;-31
2022/10/17 22:28:27;;;;;;;3.40;1.47;;;;;;;18.87;64.62;97628.78;10566589;28;20036;-30
2022/10/17 22:33:30;;;;;;;3.13;1.60;;;;;;;18.86;64.75;97619.47;10571025;28;20065;-32
2022/10/17 22:38:31;;;;;;;2.53;1.30;;;;;;;18.87;64.69;97621.19;10567029;28;20027;-30
2022/10/17 22:43:31;;;;;;;3.03;1.58;;;;;;;18.93;67.80;97618.72;10563494;28;20032;-30
2022/10/17 22:48:33;;;;;;;4.55;1.40;;;;;;;19.04;67.84;97629.84;10568168;28;20034;-31
2022/10/17 22:53:34;;;;;;;4.30;1.75;;;;;;;18.99;67.07;97613.72;10567119;28;20028;-31
2022/10/17 22:58:35;;;;;;;4.00;1.33;;;;;;;19.02;66.09;97608.69;10568870;28;20031;-30
2022/10/17 23:03:35;;;;;;;2.70;1.55;;;;;;;18.96;65.44;97606.06;10567037;28;20489;-32
2022/10/17 23:08:36;;;;;;;2.17;1.33;;;;;;;18.90;64.81;97609.38;10567792;28;20027;-30
2022/10/17 23:13:37;;;;;;;1.67;1.23;;;;;;;18.88;64.76;97598.38;10569018;28;20633;-31
2022/10/17 23:18:37;;;;;;;1.88;1.20;;;;;;;18.85;64.51;97594.94;10565715;28;20100;-31
2022/10/17 23:23:38;;;;;;;2.78;1.27;;;;;;;18.86;64.72;97592.44;10569677;28;20389;-31
2022/10/17 23:28:39;;;;;;;2.23;1.20;;;;;;;18.86;64.74;97589.03;10559866;28;20473;-30
2022/10/17 23:33:41;;;;;;;1.20;1.00;;;;;;;18.84;64.58;97586.47;10566291;28;20088;-30